sensor_id;sensor_type;location;lat;lon;timestamp;pressure;altitude;pressure_sealevel;temperature;humidity
39105;BME280;46464;51.154;13.812;2023-07-31T00:01:18;52039.31;;;-146.96;79.61
39105;BME280;46464;51.154;13.812;2023-07-31T00:03:45;52049.47;;;-146.96;79.32
39105;BME280;46464;51.154;13.812;2023-07-31T00:06:12;52067.78;;;-146.96;78.41
39105;BME280;46464;51.154;13.812;2023-07-31T00:08:38;52061.69;;;-146.96;78.65
39105;BME280;46464;51.154;13.812;2023-07-31T00:11:05;52075.94;;;-146.96;78.11
39105;BME280;46464;51.154;13.812;2023-07-31T00:13:31;52033.19;;;-146.96;78.77
39105;BME280;46464;51.154;13.812;2023-07-31T00:15:57;52069.81;;;-146.96;77.95
39105;BME280;46464;51.154;13.812;2023-07-31T00:18:24;52075.94;;;-146.96;77.74
39105;BME280;46464;51.154;13.812;2023-07-31T00:20:50;52051.50;;;-146.96;77.72
39105;BME280;46464;51.154;13.812;2023-07-31T00:23:17;52063.72;;;-146.96;76.63
39105;BME280;46464;51.154;13.812;2023-07-31T00:25:43;52047.44;;;-146.96;76.71
39105;BME280;46464;51.154;13.812;2023-07-31T00:28:10;52055.59;;;-146.96;75.76
39105;BME280;46464;51.154;13.812;2023-07-31T00:30:36;52045.41;;;-146.96;76.19
39105;BME280;46464;51.154;13.812;2023-07-31T00:33:03;52037.28;;;-146.96;75.47
39105;BME280;46464;51.154;13.812;2023-07-31T00:35:29;52047.44;;;-146.96;75.21
39105;BME280;46464;51.154;13.812;2023-07-31T00:37:57;52073.91;;;-146.96;75.36
39105;BME280;46464;51.154;13.812;2023-07-31T00:40:24;52055.59;;;-146.96;75.27
39105;BME280;46464;51.154;13.812;2023-07-31T00:42:50;52033.19;;;-146.96;75.47
39105;BME280;46464;51.154;13.812;2023-07-31T00:45:17;52051.50;;;-146.96;76.13
39105;BME280;46464;51.154;13.812;2023-07-31T00:47:44;52067.78;;;-146.96;75.38
39105;BME280;46464;51.154;13.812;2023-07-31T00:50:10;52049.47;;;-146.96;74.20
39105;BME280;46464;51.154;13.812;2023-07-31T00:52:37;52049.47;;;-146.96;74.08
39105;BME280;46464;51.154;13.812;2023-07-31T00:55:03;52037.28;;;-146.96;74.33
39105;BME280;46464;51.154;13.812;2023-07-31T00:57:30;52041.34;;;-146.96;74.47
39105;BME280;46464;51.154;13.812;2023-07-31T01:00:00;52041.34;;;-146.96;75.91
39105;BME280;46464;51.154;13.812;2023-07-31T01:02:26;52069.81;;;-146.96;75.97
39105;BME280;46464;51.154;13.812;2023-07-31T01:04:53;52055.59;;;-146.96;75.82
39105;BME280;46464;51.154;13.812;2023-07-31T01:07:22;52051.50;;;-146.96;77.02
39105;BME280;46464;51.154;13.812;2023-07-31T01:09:58;52067.78;;;-146.96;78.74
39105;BME280;46464;51.154;13.812;2023-07-31T01:12:27;52098.31;;;-146.96;79.68
39105;BME280;46464;51.154;13.812;2023-07-31T01:15:13;52033.19;;;-146.96;80.88
39105;BME280;46464;51.154;13.812;2023-07-31T01:17:41;52080.00;;;-146.96;81.23
39105;BME280;46464;51.154;13.812;2023-07-31T01:20:10;52082.03;;;-146.96;81.93
39105;BME280;46464;51.154;13.812;2023-07-31T01:23:01;52112.56;;;-146.96;81.75
39105;BME280;46464;51.154;13.812;2023-07-31T01:25:46;52102.38;;;-146.96;82.05
39105;BME280;46464;51.154;13.812;2023-07-31T01:28:14;52041.34;;;-146.96;82.50
39105;BME280;46464;51.154;13.812;2023-07-31T01:30:44;52067.78;;;-146.96;82.44
39105;BME280;46464;51.154;13.812;2023-07-31T01:33:12;52069.81;;;-146.96;83.52
39105;BME280;46464;51.154;13.812;2023-07-31T01:35:42;52088.13;;;-146.96;83.37
39105;BME280;46464;51.154;13.812;2023-07-31T01:38:09;52057.63;;;-146.96;83.27
39105;BME280;46464;51.154;13.812;2023-07-31T01:40:36;52045.41;;;-146.96;82.93
39105;BME280;46464;51.154;13.812;2023-07-31T01:43:02;52061.69;;;-146.96;83.28
39105;BME280;46464;51.154;13.812;2023-07-31T01:45:29;52126.78;;;-146.96;83.27
39105;BME280;46464;51.154;13.812;2023-07-31T01:47:56;52084.06;;;-146.96;83.07
39105;BME280;46464;51.154;13.812;2023-07-31T01:50:22;52073.91;;;-146.96;83.75
39105;BME280;46464;51.154;13.812;2023-07-31T01:52:49;52102.38;;;-146.96;83.47
39105;BME280;46464;51.154;13.812;2023-07-31T01:55:15;52077.97;;;-146.96;81.62
39105;BME280;46464;51.154;13.812;2023-07-31T01:57:41;52067.78;;;-146.96;80.59
39105;BME280;46464;51.154;13.812;2023-07-31T02:00:08;52100.34;;;-146.96;81.41
39105;BME280;46464;51.154;13.812;2023-07-31T02:02:34;52069.81;;;-146.96;82.25
39105;BME280;46464;51.154;13.812;2023-07-31T02:05:01;52065.75;;;-146.96;80.04
39105;BME280;46464;51.154;13.812;2023-07-31T02:07:27;52069.81;;;-146.96;78.52
39105;BME280;46464;51.154;13.812;2023-07-31T02:09:54;52061.69;;;-146.96;77.74
39105;BME280;46464;51.154;13.812;2023-07-31T02:12:20;52092.22;;;-146.96;75.38
39105;BME280;46464;51.154;13.812;2023-07-31T02:14:47;52057.63;;;-146.96;73.51
39105;BME280;46464;51.154;13.812;2023-07-31T02:17:13;52043.38;;;-146.96;72.16
39105;BME280;46464;51.154;13.812;2023-07-31T02:19:40;52016.94;;;-146.96;71.24
39105;BME280;46464;51.154;13.812;2023-07-31T02:22:06;52047.44;;;-146.96;70.72
39105;BME280;46464;51.154;13.812;2023-07-31T02:24:32;52014.88;;;-146.96;70.45
39105;BME280;46464;51.154;13.812;2023-07-31T02:26:59;52008.78;;;-146.96;68.78
39105;BME280;46464;51.154;13.812;2023-07-31T02:29:25;51994.53;;;-146.96;68.01
39105;BME280;46464;51.154;13.812;2023-07-31T02:31:52;51974.19;;;-146.96;67.55
39105;BME280;46464;51.154;13.812;2023-07-31T02:34:19;52021.00;;;-146.96;66.38
39105;BME280;46464;51.154;13.812;2023-07-31T02:36:45;51980.31;;;-146.96;67.88
39105;BME280;46464;51.154;13.812;2023-07-31T02:39:12;51996.59;;;-146.96;67.09
39105;BME280;46464;51.154;13.812;2023-07-31T02:41:38;51980.31;;;-146.96;66.46
39105;BME280;46464;51.154;13.812;2023-07-31T02:44:04;51970.13;;;-146.96;66.16
39105;BME280;46464;51.154;13.812;2023-07-31T02:46:31;51998.63;;;-146.96;65.86
39105;BME280;46464;51.154;13.812;2023-07-31T02:48:57;51998.63;;;-146.96;67.01
39105;BME280;46464;51.154;13.812;2023-07-31T02:51:24;52021.00;;;-146.96;65.96
39105;BME280;46464;51.154;13.812;2023-07-31T02:53:50;51998.63;;;-146.96;65.77
39105;BME280;46464;51.154;13.812;2023-07-31T02:56:17;51982.34;;;-146.96;65.19
39105;BME280;46464;51.154;13.812;2023-07-31T02:58:43;51988.44;;;-146.96;65.76
39105;BME280;46464;51.154;13.812;2023-07-31T03:01:10;51955.88;;;-146.96;63.69
39105;BME280;46464;51.154;13.812;2023-07-31T03:03:36;51976.22;;;-146.96;64.88
39105;BME280;46464;51.154;13.812;2023-07-31T03:06:03;51984.38;;;-146.96;64.47
39105;BME280;46464;51.154;13.812;2023-07-31T03:08:29;52004.72;;;-146.96;64.42
39105;BME280;46464;51.154;13.812;2023-07-31T03:10:56;51974.19;;;-146.96;64.70
39105;BME280;46464;51.154;13.812;2023-07-31T03:13:23;51980.31;;;-146.96;63.94
39105;BME280;46464;51.154;13.812;2023-07-31T03:15:50;51964.03;;;-146.96;64.38
39105;BME280;46464;51.154;13.812;2023-07-31T03:18:16;51972.16;;;-146.96;64.34
39105;BME280;46464;51.154;13.812;2023-07-31T03:20:43;51986.41;;;-146.96;64.12
39105;BME280;46464;51.154;13.812;2023-07-31T03:23:10;51939.63;;;-146.96;64.08
39105;BME280;46464;51.154;13.812;2023-07-31T03:25:36;51949.78;;;-146.96;64.90
39105;BME280;46464;51.154;13.812;2023-07-31T03:28:03;51957.91;;;-146.96;65.30
39105;BME280;46464;51.154;13.812;2023-07-31T03:30:29;51962.00;;;-146.96;65.09
39105;BME280;46464;51.154;13.812;2023-07-31T03:32:56;51957.91;;;-146.96;65.82
39105;BME280;46464;51.154;13.812;2023-07-31T03:35:23;51957.91;;;-146.96;65.85
39105;BME280;46464;51.154;13.812;2023-07-31T03:37:49;51988.44;;;-146.96;66.79
39105;BME280;46464;51.154;13.812;2023-07-31T03:40:16;52004.72;;;-146.96;67.85
39105;BME280;46464;51.154;13.812;2023-07-31T03:42:42;51964.03;;;-146.96;67.84
39105;BME280;46464;51.154;13.812;2023-07-31T03:45:09;51947.75;;;-146.96;68.87
39105;BME280;46464;51.154;13.812;2023-07-31T03:47:35;51976.22;;;-146.96;68.67
39105;BME280;46464;51.154;13.812;2023-07-31T03:50:02;51980.31;;;-146.96;70.44
39105;BME280;46464;51.154;13.812;2023-07-31T03:52:28;51990.47;;;-146.96;70.84
39105;BME280;46464;51.154;13.812;2023-07-31T03:54:55;52016.94;;;-146.96;71.31
39105;BME280;46464;51.154;13.812;2023-07-31T03:57:21;51988.44;;;-146.96;72.67
39105;BME280;46464;51.154;13.812;2023-07-31T03:59:48;52016.94;;;-146.96;74.11
39105;BME280;46464;51.154;13.812;2023-07-31T04:02:14;52031.16;;;-146.96;75.76
39105;BME280;46464;51.154;13.812;2023-07-31T04:04:41;52000.66;;;-146.96;76.44
39105;BME280;46464;51.154;13.812;2023-07-31T04:07:07;52023.03;;;-146.96;77.85
39105;BME280;46464;51.154;13.812;2023-07-31T04:09:34;52021.00;;;-146.96;78.99
39105;BME280;46464;51.154;13.812;2023-07-31T04:12:00;52000.66;;;-146.96;79.83
39105;BME280;46464;51.154;13.812;2023-07-31T04:14:27;52023.03;;;-146.96;80.74
39105;BME280;46464;51.154;13.812;2023-07-31T04:16:53;52031.16;;;-146.96;82.29
39105;BME280;46464;51.154;13.812;2023-07-31T04:19:19;52016.94;;;-146.96;81.91
39105;BME280;46464;51.154;13.812;2023-07-31T04:21:46;52031.16;;;-146.96;83.02
39105;BME280;46464;51.154;13.812;2023-07-31T04:24:12;52059.66;;;-146.96;82.96
39105;BME280;46464;51.154;13.812;2023-07-31T04:26:39;52027.09;;;-146.96;84.21
39105;BME280;46464;51.154;13.812;2023-07-31T04:29:05;52029.13;;;-146.96;85.81
39105;BME280;46464;51.154;13.812;2023-07-31T04:31:32;52039.31;;;-146.96;86.31
39105;BME280;46464;51.154;13.812;2023-07-31T04:33:58;52014.88;;;-146.96;88.04
39105;BME280;46464;51.154;13.812;2023-07-31T04:36:25;52049.47;;;-146.96;90.53
39105;BME280;46464;51.154;13.812;2023-07-31T04:38:51;52045.41;;;-146.96;91.73
39105;BME280;46464;51.154;13.812;2023-07-31T04:41:17;52069.81;;;-146.96;94.18
39105;BME280;46464;51.154;13.812;2023-07-31T04:43:44;52059.66;;;-146.96;94.75
39105;BME280;46464;51.154;13.812;2023-07-31T04:46:10;52069.81;;;-146.96;95.89
39105;BME280;46464;51.154;13.812;2023-07-31T04:48:37;52041.34;;;-146.96;97.94
39105;BME280;46464;51.154;13.812;2023-07-31T04:51:03;52092.22;;;-146.96;98.91
39105;BME280;46464;51.154;13.812;2023-07-31T04:53:29;52033.19;;;-146.96;100.00
39105;BME280;46464;51.154;13.812;2023-07-31T04:55:56;52045.41;;;-146.96;100.00
39105;BME280;46464;51.154;13.812;2023-07-31T04:58:23;52069.81;;;-146.96;100.00
39105;BME280;46464;51.154;13.812;2023-07-31T05:00:49;52077.97;;;-146.96;100.00
39105;BME280;46464;51.154;13.812;2023-07-31T05:03:15;52053.53;;;-146.96;100.00
39105;BME280;46464;51.154;13.812;2023-07-31T05:05:42;52073.91;;;-146.96;100.00
39105;BME280;46464;51.154;13.812;2023-07-31T05:08:09;52075.94;;;-146.96;100.00
39105;BME280;46464;51.154;13.812;2023-07-31T05:10:35;52071.84;;;-146.96;100.00
39105;BME280;46464;51.154;13.812;2023-07-31T05:13:02;52061.69;;;-146.96;100.00
39105;BME280;46464;51.154;13.812;2023-07-31T05:15:28;52057.63;;;-146.96;100.00
39105;BME280;46464;51.154;13.812;2023-07-31T05:17:55;52104.41;;;-146.96;100.00
39105;BME280;46464;51.154;13.812;2023-07-31T05:20:21;52065.75;;;-146.96;100.00
39105;BME280;46464;51.154;13.812;2023-07-31T05:22:48;52071.84;;;-146.96;100.00
39105;BME280;46464;51.154;13.812;2023-07-31T05:25:14;52100.34;;;-146.96;100.00
39105;BME280;46464;51.154;13.812;2023-07-31T05:27:41;52082.03;;;-146.96;100.00
39105;BME280;46464;51.154;13.812;2023-07-31T05:30:07;52077.97;;;-146.96;100.00
39105;BME280;46464;51.154;13.812;2023-07-31T05:32:34;52053.53;;;-146.96;100.00
39105;BME280;46464;51.154;13.812;2023-07-31T05:35:00;52098.31;;;-146.96;100.00
39105;BME280;46464;51.154;13.812;2023-07-31T05:37:27;52090.16;;;-146.96;100.00
39105;BME280;46464;51.154;13.812;2023-07-31T05:39:53;52100.34;;;-146.96;100.00
39105;BME280;46464;51.154;13.812;2023-07-31T05:42:20;52035.25;;;-146.96;100.00
39105;BME280;46464;51.154;13.812;2023-07-31T05:44:46;52065.75;;;-146.96;100.00
39105;BME280;46464;51.154;13.812;2023-07-31T05:47:13;52069.81;;;-146.96;100.00
39105;BME280;46464;51.154;13.812;2023-07-31T05:49:39;52102.38;;;-146.96;100.00
39105;BME280;46464;51.154;13.812;2023-07-31T05:52:06;52067.78;;;-146.96;100.00
39105;BME280;46464;51.154;13.812;2023-07-31T05:54:32;52075.94;;;-146.96;100.00
39105;BME280;46464;51.154;13.812;2023-07-31T05:56:59;52057.63;;;-146.96;100.00
39105;BME280;46464;51.154;13.812;2023-07-31T05:59:26;52084.06;;;-146.96;100.00
39105;BME280;46464;51.154;13.812;2023-07-31T06:01:52;52059.66;;;-146.96;100.00
39105;BME280;46464;51.154;13.812;2023-07-31T06:04:19;52071.84;;;-146.96;100.00
39105;BME280;46464;51.154;13.812;2023-07-31T06:06:49;52049.47;;;-146.96;100.00
39105;BME280;46464;51.154;13.812;2023-07-31T06:09:15;52082.03;;;-146.96;100.00
39105;BME280;46464;51.154;13.812;2023-07-31T06:11:42;52082.03;;;-146.96;100.00
39105;BME280;46464;51.154;13.812;2023-07-31T06:14:08;52027.09;;;-146.96;100.00
39105;BME280;46464;51.154;13.812;2023-07-31T06:16:35;52061.69;;;-146.96;100.00
39105;BME280;46464;51.154;13.812;2023-07-31T06:19:02;52096.28;;;-146.96;100.00
39105;BME280;46464;51.154;13.812;2023-07-31T06:21:28;52086.09;;;-146.96;100.00
39105;BME280;46464;51.154;13.812;2023-07-31T06:23:56;52051.50;;;-146.96;100.00
39105;BME280;46464;51.154;13.812;2023-07-31T06:26:22;52077.97;;;-146.96;100.00
39105;BME280;46464;51.154;13.812;2023-07-31T06:28:49;52088.13;;;-146.96;100.00
39105;BME280;46464;51.154;13.812;2023-07-31T06:31:15;52071.84;;;-146.96;100.00
39105;BME280;46464;51.154;13.812;2023-07-31T06:33:42;52071.84;;;-146.96;100.00
39105;BME280;46464;51.154;13.812;2023-07-31T06:36:08;52077.97;;;-146.96;100.00
39105;BME280;46464;51.154;13.812;2023-07-31T06:38:35;52039.31;;;-146.96;100.00
39105;BME280;46464;51.154;13.812;2023-07-31T06:41:01;52065.75;;;-146.96;100.00
39105;BME280;46464;51.154;13.812;2023-07-31T06:43:28;52090.16;;;-146.96;98.57
39105;BME280;46464;51.154;13.812;2023-07-31T06:45:55;52067.78;;;-146.96;100.00
39105;BME280;46464;51.154;13.812;2023-07-31T06:48:21;52053.53;;;-146.96;100.00
39105;BME280;46464;51.154;13.812;2023-07-31T06:50:48;52055.59;;;-146.96;100.00
39105;BME280;46464;51.154;13.812;2023-07-31T06:53:14;52075.94;;;-146.96;99.84
39105;BME280;46464;51.154;13.812;2023-07-31T06:55:41;52049.47;;;-146.96;100.00
39105;BME280;46464;51.154;13.812;2023-07-31T06:58:07;52053.53;;;-146.96;100.00
39105;BME280;46464;51.154;13.812;2023-07-31T07:00:33;52049.47;;;-146.96;100.00
39105;BME280;46464;51.154;13.812;2023-07-31T07:03:00;52067.78;;;-146.96;100.00
39105;BME280;46464;51.154;13.812;2023-07-31T07:05:26;52045.41;;;-146.96;100.00
39105;BME280;46464;51.154;13.812;2023-07-31T07:07:53;52059.66;;;-146.96;100.00
39105;BME280;46464;51.154;13.812;2023-07-31T07:10:20;52039.31;;;-146.96;100.00
39105;BME280;46464;51.154;13.812;2023-07-31T07:12:48;52114.59;;;-146.96;100.00
39105;BME280;46464;51.154;13.812;2023-07-31T07:15:14;52043.38;;;-146.96;100.00
39105;BME280;46464;51.154;13.812;2023-07-31T07:17:41;52086.09;;;-146.96;100.00
39105;BME280;46464;51.154;13.812;2023-07-31T07:20:08;52061.69;;;-146.96;100.00
39105;BME280;46464;51.154;13.812;2023-07-31T07:22:34;52057.63;;;-146.96;100.00
39105;BME280;46464;51.154;13.812;2023-07-31T07:25:01;52065.75;;;-146.96;100.00
39105;BME280;46464;51.154;13.812;2023-07-31T07:27:28;52051.50;;;-146.96;100.00
39105;BME280;46464;51.154;13.812;2023-07-31T07:29:54;52061.69;;;-146.96;100.00
39105;BME280;46464;51.154;13.812;2023-07-31T07:32:21;52035.25;;;-146.96;100.00
39105;BME280;46464;51.154;13.812;2023-07-31T07:34:48;52016.94;;;-146.96;98.49
39105;BME280;46464;51.154;13.812;2023-07-31T07:37:14;52000.66;;;-146.96;93.64
39105;BME280;46464;51.154;13.812;2023-07-31T07:39:41;52059.66;;;-146.96;96.32
39105;BME280;46464;51.154;13.812;2023-07-31T07:42:07;52004.72;;;-146.96;96.19
39105;BME280;46464;51.154;13.812;2023-07-31T07:44:34;52016.94;;;-146.96;95.38
39105;BME280;46464;51.154;13.812;2023-07-31T07:47:00;52041.34;;;-146.96;95.09
39105;BME280;46464;51.154;13.812;2023-07-31T07:49:27;52014.88;;;-146.96;91.18
39105;BME280;46464;51.154;13.812;2023-07-31T07:51:53;52002.69;;;-146.96;91.45
39105;BME280;46464;51.154;13.812;2023-07-31T07:54:20;52006.75;;;-146.96;90.83
39105;BME280;46464;51.154;13.812;2023-07-31T07:56:49;51982.34;;;-146.96;90.39
39105;BME280;46464;51.154;13.812;2023-07-31T07:59:16;52008.78;;;-146.96;86.82
39105;BME280;46464;51.154;13.812;2023-07-31T08:01:42;51992.50;;;-146.96;88.12
39105;BME280;46464;51.154;13.812;2023-07-31T08:04:09;51982.34;;;-146.96;88.16
39105;BME280;46464;51.154;13.812;2023-07-31T08:06:35;51992.50;;;-146.96;87.00
39105;BME280;46464;51.154;13.812;2023-07-31T08:09:02;51964.03;;;-146.96;85.07
39105;BME280;46464;51.154;13.812;2023-07-31T08:11:33;51986.41;;;-146.96;85.44
39105;BME280;46464;51.154;13.812;2023-07-31T08:13:59;51972.16;;;-146.96;85.96
39105;BME280;46464;51.154;13.812;2023-07-31T08:16:26;52004.72;;;-146.96;86.84
39105;BME280;46464;51.154;13.812;2023-07-31T08:18:52;51962.00;;;-146.96;85.73
39105;BME280;46464;51.154;13.812;2023-07-31T08:21:19;51992.50;;;-146.96;84.25
39105;BME280;46464;51.154;13.812;2023-07-31T08:23:45;51998.63;;;-146.96;84.56
39105;BME280;46464;51.154;13.812;2023-07-31T08:26:15;51980.31;;;-146.96;86.30
39105;BME280;46464;51.154;13.812;2023-07-31T08:28:42;51986.41;;;-146.96;82.28
39105;BME280;46464;51.154;13.812;2023-07-31T08:31:09;51988.44;;;-146.96;79.82
39105;BME280;46464;51.154;13.812;2023-07-31T08:33:35;51957.91;;;-146.96;80.18
39105;BME280;46464;51.154;13.812;2023-07-31T08:36:02;51970.13;;;-146.96;78.74
39105;BME280;46464;51.154;13.812;2023-07-31T08:38:28;51984.38;;;-146.96;77.42
39105;BME280;46464;51.154;13.812;2023-07-31T08:40:59;51945.72;;;-146.96;77.55
39105;BME280;46464;51.154;13.812;2023-07-31T08:43:26;51976.22;;;-146.96;79.18
39105;BME280;46464;51.154;13.812;2023-07-31T08:45:52;51955.88;;;-146.96;81.02
39105;BME280;46464;51.154;13.812;2023-07-31T08:48:20;51937.56;;;-146.96;77.90
39105;BME280;46464;51.154;13.812;2023-07-31T08:50:47;51953.84;;;-146.96;76.19
39105;BME280;46464;51.154;13.812;2023-07-31T08:53:13;51939.63;;;-146.96;75.19
39105;BME280;46464;51.154;13.812;2023-07-31T08:55:40;51945.72;;;-146.96;76.64
39105;BME280;46464;51.154;13.812;2023-07-31T08:58:06;51990.47;;;-146.96;76.33
39105;BME280;46464;51.154;13.812;2023-07-31T09:00:33;51933.50;;;-146.96;75.04
39105;BME280;46464;51.154;13.812;2023-07-31T09:03:03;51974.19;;;-146.96;78.53
39105;BME280;46464;51.154;13.812;2023-07-31T09:05:35;51941.66;;;-146.96;75.08
39105;BME280;46464;51.154;13.812;2023-07-31T09:08:02;51953.84;;;-146.96;77.54
39105;BME280;46464;51.154;13.812;2023-07-31T09:10:30;51959.97;;;-146.96;75.33
39105;BME280;46464;51.154;13.812;2023-07-31T09:12:56;51951.81;;;-146.96;74.97
39105;BME280;46464;51.154;13.812;2023-07-31T09:15:23;51972.16;;;-146.96;80.28
39105;BME280;46464;51.154;13.812;2023-07-31T09:18:03;51968.09;;;-146.96;77.59
39105;BME280;46464;51.154;13.812;2023-07-31T09:20:30;51964.03;;;-146.96;80.32
39105;BME280;46464;51.154;13.812;2023-07-31T09:23:04;51941.66;;;-146.96;74.79
39105;BME280;46464;51.154;13.812;2023-07-31T09:25:31;51943.69;;;-146.96;76.48
39105;BME280;46464;51.154;13.812;2023-07-31T09:27:59;51947.75;;;-146.96;75.80
39105;BME280;46464;51.154;13.812;2023-07-31T09:30:26;51955.88;;;-146.96;73.12
39105;BME280;46464;51.154;13.812;2023-07-31T09:33:03;51955.88;;;-146.96;72.00
39105;BME280;46464;51.154;13.812;2023-07-31T09:35:30;51976.22;;;-146.96;72.58
39105;BME280;46464;51.154;13.812;2023-07-31T09:37:58;51917.22;;;-146.96;71.33
39105;BME280;46464;51.154;13.812;2023-07-31T09:40:25;51919.28;;;-146.96;70.75
39105;BME280;46464;51.154;13.812;2023-07-31T09:42:53;51982.34;;;-146.96;70.89
39105;BME280;46464;51.154;13.812;2023-07-31T09:45:19;51939.63;;;-146.96;71.56
39105;BME280;46464;51.154;13.812;2023-07-31T09:47:54;51949.78;;;-146.96;70.53
39105;BME280;46464;51.154;13.812;2023-07-31T09:50:21;51933.50;;;-146.96;71.21
39105;BME280;46464;51.154;13.812;2023-07-31T09:52:48;51929.44;;;-146.96;70.69
39105;BME280;46464;51.154;13.812;2023-07-31T09:55:15;51925.38;;;-146.96;69.87
39105;BME280;46464;51.154;13.812;2023-07-31T09:57:41;51931.47;;;-146.96;70.59
39105;BME280;46464;51.154;13.812;2023-07-31T10:00:09;51923.34;;;-146.96;71.29
39105;BME280;46464;51.154;13.812;2023-07-31T10:02:36;51931.47;;;-146.96;70.20
39105;BME280;46464;51.154;13.812;2023-07-31T10:05:04;51917.22;;;-146.96;69.36
39105;BME280;46464;51.154;13.812;2023-07-31T10:07:31;51923.34;;;-146.96;67.86
39105;BME280;46464;51.154;13.812;2023-07-31T10:09:58;51880.63;;;-146.96;68.38
39105;BME280;46464;51.154;13.812;2023-07-31T10:12:28;51907.06;;;-146.96;68.08
39105;BME280;46464;51.154;13.812;2023-07-31T10:14:55;51911.13;;;-146.96;68.50
39105;BME280;46464;51.154;13.812;2023-07-31T10:17:22;51903.00;;;-146.96;67.74
39105;BME280;46464;51.154;13.812;2023-07-31T10:19:49;51874.50;;;-146.96;68.30
39105;BME280;46464;51.154;13.812;2023-07-31T10:22:16;51884.69;;;-146.96;67.27
39105;BME280;46464;51.154;13.812;2023-07-31T10:24:42;51896.88;;;-146.96;66.91
39105;BME280;46464;51.154;13.812;2023-07-31T10:27:09;51900.97;;;-146.96;67.17
39105;BME280;46464;51.154;13.812;2023-07-31T10:29:37;51896.88;;;-146.96;66.79
39105;BME280;46464;51.154;13.812;2023-07-31T10:32:04;51890.78;;;-146.96;66.11
39105;BME280;46464;51.154;13.812;2023-07-31T10:34:34;51888.75;;;-146.96;67.46
39105;BME280;46464;51.154;13.812;2023-07-31T10:42:27;51862.31;;;-146.96;67.28
39105;BME280;46464;51.154;13.812;2023-07-31T10:44:56;51860.25;;;-146.96;64.22
39105;BME280;46464;51.154;13.812;2023-07-31T10:47:22;51868.41;;;-146.96;65.11
39105;BME280;46464;51.154;13.812;2023-07-31T10:49:49;51854.16;;;-146.96;64.84
39105;BME280;46464;51.154;13.812;2023-07-31T10:52:19;51870.44;;;-146.96;65.40
39105;BME280;46464;51.154;13.812;2023-07-31T10:57:37;51835.84;;;-146.96;63.60
39105;BME280;46464;51.154;13.812;2023-07-31T11:03:05;51844.00;;;-146.96;64.30
39105;BME280;46464;51.154;13.812;2023-07-31T11:05:46;51864.34;;;-146.96;64.90
39105;BME280;46464;51.154;13.812;2023-07-31T11:08:31;51860.25;;;-146.96;64.27
39105;BME280;46464;51.154;13.812;2023-07-31T11:15:54;51862.31;;;-146.96;63.58
39105;BME280;46464;51.154;13.812;2023-07-31T11:18:21;51864.34;;;-146.96;62.69
39105;BME280;46464;51.154;13.812;2023-07-31T11:20:47;51819.56;;;-146.96;63.34
39105;BME280;46464;51.154;13.812;2023-07-31T11:23:15;51862.31;;;-146.96;63.52
39105;BME280;46464;51.154;13.812;2023-07-31T11:25:42;51835.84;;;-146.96;64.30
39105;BME280;46464;51.154;13.812;2023-07-31T11:28:09;51837.88;;;-146.96;66.97
39105;BME280;46464;51.154;13.812;2023-07-31T11:30:36;51846.03;;;-146.96;67.72
39105;BME280;46464;51.154;13.812;2023-07-31T11:33:03;51852.13;;;-146.96;67.63
39105;BME280;46464;51.154;13.812;2023-07-31T11:35:33;51860.25;;;-146.96;69.55
39105;BME280;46464;51.154;13.812;2023-07-31T11:38:00;51907.06;;;-146.96;69.83
39105;BME280;46464;51.154;13.812;2023-07-31T11:40:27;51898.91;;;-146.96;72.47
39105;BME280;46464;51.154;13.812;2023-07-31T11:42:58;51872.47;;;-146.96;73.92
39105;BME280;46464;51.154;13.812;2023-07-31T11:45:25;51884.69;;;-146.96;74.55
39105;BME280;46464;51.154;13.812;2023-07-31T11:47:55;51882.66;;;-146.96;76.86
39105;BME280;46464;51.154;13.812;2023-07-31T11:50:22;51880.63;;;-146.96;76.96
39105;BME280;46464;51.154;13.812;2023-07-31T11:52:55;51892.81;;;-146.96;74.99
39105;BME280;46464;51.154;13.812;2023-07-31T11:55:22;51886.72;;;-146.96;75.91
39105;BME280;46464;51.154;13.812;2023-07-31T11:57:49;51892.81;;;-146.96;77.65
39105;BME280;46464;51.154;13.812;2023-07-31T12:00:16;51900.97;;;-146.96;77.13
39105;BME280;46464;51.154;13.812;2023-07-31T12:02:43;51927.41;;;-146.96;77.60
39105;BME280;46464;51.154;13.812;2023-07-31T12:05:13;51890.78;;;-146.96;79.14
39105;BME280;46464;51.154;13.812;2023-07-31T12:10:22;51886.72;;;-146.96;74.85
39105;BME280;46464;51.154;13.812;2023-07-31T12:13:04;51882.66;;;-146.96;80.18
39105;BME280;46464;51.154;13.812;2023-07-31T12:15:39;51829.75;;;-146.96;77.40
39105;BME280;46464;51.154;13.812;2023-07-31T12:18:13;51850.09;;;-146.96;76.66
39105;BME280;46464;51.154;13.812;2023-07-31T12:20:43;51819.56;;;-146.96;77.41
39105;BME280;46464;51.154;13.812;2023-07-31T12:23:14;51825.69;;;-146.96;76.84
39105;BME280;46464;51.154;13.812;2023-07-31T12:25:41;51819.56;;;-146.96;71.67
39105;BME280;46464;51.154;13.812;2023-07-31T12:28:07;51815.50;;;-146.96;71.39
39105;BME280;46464;51.154;13.812;2023-07-31T12:30:39;51776.84;;;-146.96;66.74
39105;BME280;46464;51.154;13.812;2023-07-31T12:35:40;51746.34;;;-146.96;66.12
39105;BME280;46464;51.154;13.812;2023-07-31T12:38:07;51774.81;;;-146.96;66.70
39105;BME280;46464;51.154;13.812;2023-07-31T12:40:35;51797.19;;;-146.96;66.46
39105;BME280;46464;51.154;13.812;2023-07-31T12:43:01;51776.84;;;-146.96;63.57
39105;BME280;46464;51.154;13.812;2023-07-31T12:45:30;51782.97;;;-146.96;63.43
39105;BME280;46464;51.154;13.812;2023-07-31T12:47:57;51776.84;;;-146.96;63.78
39105;BME280;46464;51.154;13.812;2023-07-31T12:50:24;51748.38;;;-146.96;62.72